Prague, Czech Republic

10:02 PM CEST on October 25, 2014 (GMT +0200)
Strasnice | Change Station
CLOSE
Current Station
Personal Weather Station
Location: Prague, none
Elevation: 720 ft
Nearby Weather Stations

Elev 720 ft 50.07 °N, 14.49 °E | Updated 1 minute ago

Overcast
Overcast
45.0 °F
Feels Like 45 °F
N
0.0
Wind Variable Wind from SW
Gusts 0.0 mph

Today
High -- | Low -- °F
--% Chance of Precip.
Yesterday
High -- | Low -- °F
Precip. -- in
7:39 AM 5:51 PM
Waxing Crescent, 4% visible
Pressure 30.24 in
Visibility 6.2 miles
Clouds Overcast 1900 ft
Windchill 45 °F
Dew Point 40 °F
Humidity 84%
Rainfall 0.00 in
Snow Depth Not available.
UV 0.0 out of 12
Pollen Not available.
Air Quality Not available.
Flu Activity Not available.
METAR LKPR 251930Z 17005KT 9999 OVC019 06/04 Q1024 NOSIG

More Conditions Fewer Conditions

Pressure 30.24 in
Visibility 6.2 miles
Clouds Overcast 1900 ft
Windchill 45 °F
Dew Point 40 °F
Humidity 84%
Rainfall 0.00 in
Snow Depth Not available.
UV 0.0 out of 12
Pollen Not available.
Air Quality Not available.
Flu Activity Not available.
METAR LKPR 251930Z 17005KT 9999 OVC019 06/04 Q1024 NOSIG

More Conditions Fewer Conditions

10-Day Weather Forecast

Almanac

Astronomy

Oct. 25, 2014 Rise Set
Actual Time 7:39 AM CEST 5:51 PM CEST
Civil Twilight 7:06 AM CEST 6:24 PM CEST
Nautical Twilight 6:28 AM CEST 7:02 PM CEST
Astronomical Twilight 5:51 AM CEST 7:40 PM CEST
Moon 9:07 AM CEST 6:53 PM CEST
Length of Visible Light 11h 18m
Length of Day
10h 11m
Tomorrow will be 3m 30s shorter.
Waxing Crescent, 4% of the Moon is Illuminated
Today
Waxing Crescent
Oct 30
First Quarter
Nov 6
Full
Nov 14
Last Quarter
Nov 22
New

Today's Extremes

Country Highs Country Lows

Community

WunderPhotos

Upload Photos

1,764,976 photos uploaded!

Nearby

Snow Depth

Not available.

Earthquake Activity

City Distance Mag. Time & Date
No recent earthquake activity has been reported nearby.
Minimum magnitude displayed is 2.5.

Coastal Water Temperatures

Place Temperature
No Stations Reporting

Nearby Weather Stations